createdAt,value
2022-11-07T00:01:36.181Z,98929.94
2022-11-07T00:04:03.031Z,98927.44
2022-11-07T00:06:30.163Z,98934.69
2022-11-07T00:08:59.104Z,98934.69
2022-11-07T00:11:26.176Z,98927.88
2022-11-07T00:13:52.971Z,98931.63
2022-11-07T00:16:19.850Z,98921.66
2022-11-07T00:18:46.622Z,98934.75
2022-11-07T00:21:13.353Z,98938.91
2022-11-07T00:23:42.023Z,98932.97
2022-11-07T00:26:13.072Z,98930.84
2022-11-07T00:28:43.044Z,98933.59
2022-11-07T00:31:12.751Z,98942.78
2022-11-07T00:33:41.163Z,98938.38
2022-11-07T00:36:22.550Z,98947.31
2022-11-07T00:38:49.382Z,98955.00
2022-11-07T00:41:17.565Z,98952.97
2022-11-07T00:43:44.710Z,98959.59
2022-11-07T00:46:14.827Z,98954.19
2022-11-07T00:48:42.575Z,98959.59
2022-11-07T00:51:25.369Z,98956.44
2022-11-07T00:53:52.689Z,98961.19
2022-11-07T00:56:23.838Z,98959.31
2022-11-07T00:58:57.883Z,98953.47
2022-11-07T01:01:29.633Z,98956.38
2022-11-07T01:04:16.060Z,98954.84
2022-11-07T01:06:45.041Z,98959.66
2022-11-07T01:09:16.322Z,98954.00
2022-11-07T01:11:43.711Z,98966.03
2022-11-07T01:14:12.734Z,98964.78
2022-11-07T01:16:39.728Z,98974.75
2022-11-07T01:19:08.125Z,98972.06
2022-11-07T01:21:37.791Z,98969.53
2022-11-07T01:24:06.281Z,98963.50
2022-11-07T01:26:33.074Z,98966.03
2022-11-07T01:29:00.149Z,98972.59
2022-11-07T01:31:26.958Z,98961.00
2022-11-07T01:33:53.755Z,98964.34
2022-11-07T01:36:20.551Z,98962.69
2022-11-07T01:38:48.887Z,98964.75
2022-11-07T01:41:24.373Z,98967.81
2022-11-07T01:43:58.733Z,98973.19
2022-11-07T01:46:39.863Z,98977.94
2022-11-07T01:49:28.671Z,98989.94
2022-11-07T01:52:16.060Z,98988.47
2022-11-07T01:55:11.325Z,98998.22
2022-11-07T01:57:58.630Z,98993.06
2022-11-07T02:00:26.476Z,98996.41
2022-11-07T02:03:03.279Z,98998.09
2022-11-07T02:05:39.046Z,99004.50
2022-11-07T02:08:09.111Z,99000.78
2022-11-07T02:10:38.665Z,99003.31
2022-11-07T02:13:06.786Z,98997.09
2022-11-07T02:15:35.921Z,98986.31
2022-11-07T02:18:03.492Z,98981.75
2022-11-07T02:20:30.693Z,98991.03
2022-11-07T02:23:01.901Z,98990.47
2022-11-07T02:25:29.830Z,98989.00
2022-11-07T02:28:05.493Z,98990.38
2022-11-07T02:30:34.821Z,98998.38
2022-11-07T02:33:03.303Z,98989.50
2022-11-07T02:35:40.217Z,98987.69
2022-11-07T02:38:14.549Z,98991.31
2022-11-07T02:40:43.884Z,98987.41
2022-11-07T02:43:13.841Z,98985.59
2022-11-07T02:45:45.373Z,98984.84
2022-11-07T02:48:12.309Z,98981.75
2022-11-07T02:50:40.667Z,98983.66
2022-11-07T02:53:07.540Z,98988.66
2022-11-07T02:55:34.766Z,98983.06
2022-11-07T02:58:01.891Z,98987.25
2022-11-07T03:00:28.791Z,98992.63
2022-11-07T03:02:55.782Z,98991.63
2022-11-07T03:05:22.677Z,98993.06
2022-11-07T03:07:50.455Z,98993.72
2022-11-07T03:10:18.651Z,98991.84
2022-11-07T03:12:45.500Z,98995.19
2022-11-07T03:15:13.947Z,98991.25
2022-11-07T03:17:41.799Z,98989.38
2022-11-07T03:20:09.932Z,98988.38
2022-11-07T03:22:36.815Z,98976.16
2022-11-07T03:25:05.464Z,98991.09
2022-11-07T03:27:32.337Z,98975.75
2022-11-07T03:29:59.488Z,98987.78
2022-11-07T03:32:26.381Z,98974.72
2022-11-07T03:34:53.142Z,98985.75
2022-11-07T03:37:19.882Z,98980.38
2022-11-07T03:39:46.738Z,98973.34
2022-11-07T03:42:13.491Z,98973.34
2022-11-07T03:44:40.715Z,98965.88
2022-11-07T03:47:07.472Z,98975.44
2022-11-07T03:49:34.358Z,98971.72
2022-11-07T03:52:01.097Z,98974.41
2022-11-07T03:54:27.852Z,98966.75
2022-11-07T03:56:54.764Z,98962.16
2022-11-07T03:59:21.974Z,98968.19
2022-11-07T04:01:48.910Z,98963.81
2022-11-07T04:04:16.094Z,98970.72
2022-11-07T04:06:42.870Z,98972.78
2022-11-07T04:09:09.765Z,98974.44
2022-11-07T04:11:55.325Z,98971.53
2022-11-07T04:14:40.741Z,98969.47
2022-11-07T04:17:19.269Z,98971.72
2022-11-07T04:19:52.172Z,98970.91
2022-11-07T04:22:19.113Z,98969.31
2022-11-07T04:24:46.533Z,98966.41
2022-11-07T04:27:35.258Z,98975.34
2022-11-07T04:30:28.319Z,98977.22
2022-11-07T04:32:59.569Z,98977.22
2022-11-07T04:35:30.110Z,98979.50
2022-11-07T04:37:57.401Z,98989.06
2022-11-07T04:40:24.529Z,98975.56
2022-11-07T04:42:51.383Z,98976.41
2022-11-07T04:45:18.727Z,98959.81
2022-11-07T04:47:46.259Z,98953.78
2022-11-07T04:50:16.697Z,98954.78
2022-11-07T04:52:43.830Z,98960.25
2022-11-07T04:55:22.610Z,98963.13
2022-11-07T04:57:49.718Z,98974.75
2022-11-07T05:00:18.579Z,98970.19
2022-11-07T05:02:46.801Z,98963.56
2022-11-07T05:05:14.155Z,98967.09
2022-11-07T05:07:41.694Z,98965.03
2022-11-07T05:10:17.525Z,98974.81
2022-11-07T05:12:44.338Z,98971.06
2022-11-07T05:15:11.513Z,98961.94
2022-11-07T05:17:38.308Z,98955.28
2022-11-07T05:20:05.766Z,98967.34
2022-11-07T05:22:56.148Z,98969.84
2022-11-07T05:25:23.244Z,98975.06
2022-11-07T05:27:55.815Z,98967.78
2022-11-07T05:30:22.624Z,98973.19
2022-11-07T05:32:49.361Z,98958.22
2022-11-07T05:35:16.110Z,98960.09
2022-11-07T05:37:42.846Z,98963.22
2022-11-07T05:40:10.415Z,98970.28
2022-11-07T05:42:37.154Z,98962.84
2022-11-07T05:45:04.508Z,98969.69
2022-11-07T05:47:31.262Z,98956.00
2022-11-07T05:49:57.993Z,98953.28
2022-11-07T05:52:25.116Z,98961.59
2022-11-07T05:54:51.882Z,98956.63
2022-11-07T05:57:18.649Z,98954.13
2022-11-07T05:59:45.459Z,98943.34
2022-11-07T06:02:12.297Z,98943.97
2022-11-07T06:04:39.254Z,98953.31
2022-11-07T06:07:06.006Z,98946.84
2022-11-07T06:09:32.775Z,98953.31
2022-11-07T06:11:59.554Z,98952.88
2022-11-07T06:14:26.463Z,98952.88
2022-11-07T06:16:53.275Z,98951.88
2022-11-07T06:19:20.125Z,98961.22
2022-11-07T06:21:47.074Z,98950.22
2022-11-07T06:24:15.550Z,98946.25
2022-11-07T06:26:42.850Z,98946.28
2022-11-07T06:29:09.573Z,98948.78
2022-11-07T06:31:36.395Z,98949.41
2022-11-07T06:34:03.386Z,98949.22
2022-11-07T06:36:30.146Z,98952.97
2022-11-07T06:38:56.937Z,98954.59
2022-11-07T06:41:23.967Z,98957.31
2022-11-07T06:43:52.084Z,98954.84
2022-11-07T06:46:20.107Z,98953.16
2022-11-07T06:48:46.875Z,98956.91
2022-11-07T06:51:13.864Z,98954.00
2022-11-07T06:53:40.743Z,98958.56
2022-11-07T06:56:12.427Z,98963.78
2022-11-07T06:58:39.184Z,98969.38
2022-11-07T07:01:09.962Z,98971.69
2022-11-07T07:03:36.725Z,98976.25
2022-11-07T07:06:07.334Z,98972.50
2022-11-07T07:08:34.538Z,98976.88
2022-11-07T07:11:08.095Z,98978.75
2022-11-07T07:13:35.557Z,98989.56
2022-11-07T07:16:02.448Z,98983.75
2022-11-07T07:18:29.496Z,98984.56
2022-11-07T07:21:10.198Z,98986.25
2022-11-07T07:23:38.963Z,98986.88
2022-11-07T07:26:10.261Z,98982.94
2022-11-07T07:28:39.953Z,98989.78
2022-11-07T07:31:15.930Z,98990.84
2022-11-07T07:33:43.835Z,98983.97
2022-11-07T07:36:15.348Z,98996.25
2022-11-07T07:38:46.144Z,98991.03
2022-11-07T07:41:13.042Z,98985.41
2022-11-07T07:43:39.840Z,98991.25
2022-11-07T07:46:09.087Z,98984.41
2022-11-07T07:48:35.926Z,98989.59
2022-11-07T07:51:03.139Z,98992.06
2022-11-07T07:53:30.234Z,98994.78
2022-11-07T07:56:00.928Z,98988.16
2022-11-07T07:58:28.035Z,98991.47
2022-11-07T08:00:59.319Z,98991.66
2022-11-07T08:03:32.047Z,98995.41
2022-11-07T08:06:07.124Z,98987.09
2022-11-07T08:08:38.131Z,98995.84
2022-11-07T08:11:08.773Z,98992.94
2022-11-07T08:13:36.350Z,98997.09
2022-11-07T08:16:07.648Z,98993.72
2022-11-07T08:18:36.801Z,98994.59
2022-11-07T08:21:03.781Z,98991.69
2022-11-07T08:23:31.400Z,98995.00
2022-11-07T08:26:00.450Z,98988.13
2022-11-07T08:28:30.647Z,98993.34
2022-11-07T08:31:03.374Z,99000.81
2022-11-07T08:33:30.701Z,98999.97
2022-11-07T08:36:03.084Z,98998.50
2022-11-07T08:38:32.342Z,99004.34
2022-11-07T08:40:59.791Z,99013.31
2022-11-07T08:43:26.732Z,99006.22
2022-11-07T08:45:55.359Z,99010.38
2022-11-07T08:48:23.044Z,99020.81
2022-11-07T08:50:55.770Z,99012.88
2022-11-07T08:53:24.711Z,99010.41
2022-11-07T08:55:51.970Z,99010.16
2022-11-07T08:58:19.557Z,99017.66
2022-11-07T09:00:46.517Z,99019.31
2022-11-07T09:06:01.617Z,99017.03
2022-11-07T09:08:28.778Z,99024.75
2022-11-07T09:10:55.606Z,99001.59
2022-11-07T09:13:22.538Z,99010.94
2022-11-07T09:15:51.558Z,99004.72
2022-11-07T09:18:19.984Z,99016.56
2022-11-07T09:20:47.505Z,99009.06
2022-11-07T09:23:14.885Z,99004.03
2022-11-07T09:25:41.916Z,99005.06
2022-11-07T09:28:09.039Z,99010.69
2022-11-07T09:30:36.071Z,99002.34
2022-11-07T09:33:02.822Z,99012.53
2022-11-07T09:35:29.615Z,99010.25
2022-11-07T09:37:56.430Z,98999.41
2022-11-07T09:40:43.972Z,99003.34
2022-11-07T09:43:25.098Z,99013.75
2022-11-07T09:46:04.397Z,99012.50
2022-11-07T09:48:45.943Z,99014.81
2022-11-07T09:51:42.360Z,99020.41
2022-11-07T09:54:22.723Z,99026.44
2022-11-07T09:56:49.685Z,99029.78
2022-11-07T09:59:37.990Z,99028.75
2022-11-07T10:02:20.425Z,99032.06
2022-11-07T10:04:56.687Z,99028.94
2022-11-07T10:07:36.327Z,99038.28
2022-11-07T10:10:17.214Z,99036.81
2022-11-07T10:13:09.032Z,99031.81
2022-11-07T10:16:01.966Z,99037.22
2022-11-07T10:19:10.179Z,99047.25
2022-11-07T10:21:50.055Z,99040.13
2022-11-07T10:24:45.240Z,99048.88
2022-11-07T10:27:13.471Z,99046.38
2022-11-07T10:29:53.866Z,99047.84
2022-11-07T10:32:43.327Z,99047.59
2022-11-07T10:35:13.026Z,99045.50
2022-11-07T10:37:40.128Z,99030.44
2022-11-07T10:40:17.583Z,99038.97
2022-11-07T10:42:46.260Z,99038.34
2022-11-07T10:45:18.120Z,99033.31
2022-11-07T10:47:59.233Z,99043.31
2022-11-07T10:50:26.767Z,99036.59
2022-11-07T10:53:03.534Z,99048.06
2022-11-07T10:55:43.190Z,99032.63
2022-11-07T10:58:21.219Z,99043.00
2022-11-07T11:01:24.568Z,99036.06
2022-11-07T11:03:52.030Z,99037.50
2022-11-07T11:06:18.995Z,99039.97
2022-11-07T11:08:52.206Z,99041.41
2022-11-07T11:11:21.928Z,99040.13
2022-11-07T11:13:49.515Z,99043.84
2022-11-07T11:16:25.175Z,99037.13
2022-11-07T11:18:56.794Z,99043.75
2022-11-07T11:21:25.337Z,99040.78
2022-11-07T11:23:54.807Z,99044.88
2022-11-07T11:26:24.360Z,99028.50
2022-11-07T11:29:06.167Z,99042.47
2022-11-07T11:31:49.504Z,99040.16
2022-11-07T11:34:31.270Z,99041.59
2022-11-07T11:37:09.202Z,99046.81
2022-11-07T11:40:00.369Z,99039.41
2022-11-07T11:42:53.628Z,99037.09
2022-11-07T11:45:54.215Z,99025.75
2022-11-07T11:48:26.422Z,99042.44
2022-11-07T11:51:02.694Z,99034.22
2022-11-07T11:53:29.697Z,99038.59
2022-11-07T11:56:27.445Z,99034.66
2022-11-07T11:59:44.073Z,99032.09
2022-11-07T12:02:45.668Z,99024.78
2022-11-07T12:05:27.478Z,99021.84
2022-11-07T12:08:00.857Z,99030.81
2022-11-07T12:10:41.310Z,99028.78
2022-11-07T12:13:31.070Z,99023.50
2022-11-07T12:16:48.905Z,99026.06
2022-11-07T12:19:18.461Z,99032.34
2022-11-07T12:22:18.747Z,99023.34
2022-11-07T12:25:06.242Z,99021.69
2022-11-07T12:28:05.041Z,99015.19
2022-11-07T12:30:42.387Z,99006.13
2022-11-07T12:33:28.402Z,99012.38
2022-11-07T12:36:23.241Z,99002.88
2022-11-07T12:39:29.315Z,98998.41
2022-11-07T12:42:38.360Z,99001.28
2022-11-07T12:45:47.363Z,99000.59
2022-11-07T12:48:45.369Z,99006.88
2022-11-07T12:51:26.186Z,98998.41
2022-11-07T12:54:36.861Z,98999.00
2022-11-07T12:57:32.930Z,98995.81
2022-11-07T13:00:05.901Z,99005.19
2022-11-07T13:03:30.647Z,99004.22
2022-11-07T13:06:23.934Z,98992.63
2022-11-07T13:09:14.382Z,98999.53
2022-11-07T13:11:53.399Z,98984.47
2022-11-07T13:14:37.224Z,98976.69
2022-11-07T13:17:27.839Z,98975.03
2022-11-07T13:20:22.015Z,98972.53
2022-11-07T13:22:55.602Z,98966.16
2022-11-07T13:25:32.485Z,98956.38
2022-11-07T13:27:59.280Z,98955.50
2022-11-07T13:30:40.319Z,98950.94
2022-11-07T13:33:25.375Z,98942.50
2022-11-07T13:36:15.529Z,98945.94
2022-11-07T13:38:51.882Z,98943.22
2022-11-07T13:41:19.299Z,98934.59
2022-11-07T13:43:59.563Z,98927.25
2022-11-07T13:46:33.702Z,98928.22
2022-11-07T13:49:10.713Z,98926.91
2022-11-07T13:51:49.633Z,98930.19
2022-11-07T13:54:31.539Z,98932.91
2022-11-07T13:57:17.485Z,98926.53
2022-11-07T13:59:55.589Z,98924.75
2022-11-07T14:02:29.288Z,98916.63
2022-11-07T14:05:17.606Z,98920.78
2022-11-07T14:08:00.755Z,98914.38
2022-11-07T14:10:38.073Z,98916.41
2022-11-07T14:13:09.375Z,98913.41
2022-11-07T14:15:44.717Z,98923.50
2022-11-07T14:18:16.453Z,98922.31
2022-11-07T14:20:54.693Z,98916.50
2022-11-07T14:23:28.740Z,98929.75
2022-11-07T14:25:58.900Z,98921.13
2022-11-07T14:28:37.751Z,98928.09
2022-11-07T14:31:12.711Z,98918.13
2022-11-07T14:33:39.554Z,98927.97
2022-11-07T14:36:07.126Z,98918.50
2022-11-07T14:38:34.256Z,98917.41
2022-11-07T14:41:02.999Z,98916.41
2022-11-07T14:43:31.237Z,98921.78
2022-11-07T14:46:12.327Z,98914.66
2022-11-07T14:48:42.953Z,98914.75
2022-11-07T14:51:14.264Z,98910.97
2022-11-07T14:53:51.376Z,98906.81
2022-11-07T14:56:25.740Z,98910.44
2022-11-07T14:58:53.307Z,98914.63
2022-11-07T15:01:38.439Z,98903.00
2022-11-07T15:04:31.174Z,98911.63
2022-11-07T15:07:21.596Z,98903.94
2022-11-07T15:09:48.929Z,98902.03
2022-11-07T15:12:28.742Z,98894.09
2022-11-07T15:15:07.062Z,98890.78
2022-11-07T15:17:44.634Z,98897.53
2022-11-07T15:20:38.999Z,98889.59
2022-11-07T15:23:14.891Z,98893.84
2022-11-07T15:25:53.325Z,98882.50
2022-11-07T15:28:45.017Z,98878.81
2022-11-07T15:31:30.155Z,98883.06
2022-11-07T15:33:59.229Z,98876.72
2022-11-07T15:36:26.231Z,98876.94
2022-11-07T15:38:54.216Z,98879.88
2022-11-07T15:41:21.146Z,98880.09
2022-11-07T15:43:47.992Z,98881.31
2022-11-07T15:46:36.807Z,98875.75
2022-11-07T15:49:04.618Z,98878.59
2022-11-07T15:51:31.868Z,98884.63
2022-11-07T15:53:59.155Z,98881.31
2022-11-07T15:56:26.859Z,98872.91
2022-11-07T15:58:55.170Z,98886.50
2022-11-07T16:01:23.277Z,98894.31
2022-11-07T16:03:50.313Z,98888.88
2022-11-07T16:06:28.420Z,98883.41
2022-11-07T16:08:55.451Z,98887.22
2022-11-07T16:11:22.997Z,98873.03
2022-11-07T16:13:50.988Z,98878.31
2022-11-07T16:16:32.767Z,98869.94
2022-11-07T16:19:00.734Z,98863.66
2022-11-07T16:21:27.529Z,98862.84
2022-11-07T16:23:54.534Z,98855.25
2022-11-07T16:26:28.404Z,98852.66
2022-11-07T16:28:55.253Z,98855.75
2022-11-07T16:31:22.014Z,98842.00
2022-11-07T16:33:48.812Z,98836.56
2022-11-07T16:36:24.394Z,98835.50
2022-11-07T16:38:52.036Z,98817.53
2022-11-07T16:41:19.915Z,98817.53
2022-11-07T16:43:47.486Z,98814.59
2022-11-07T16:46:21.510Z,98815.41
2022-11-07T16:48:54.239Z,98812.34
2022-11-07T16:51:22.529Z,98816.34
2022-11-07T16:53:49.478Z,98824.16
2022-11-07T16:56:27.320Z,98810.78
2022-11-07T16:58:54.692Z,98815.78
2022-11-07T17:01:23.579Z,98810.78
2022-11-07T17:03:51.347Z,98811.03
2022-11-07T17:06:25.893Z,98813.06
2022-11-07T17:08:52.711Z,98803.72
2022-11-07T17:11:20.117Z,98811.63
2022-11-07T17:13:47.343Z,98802.41
2022-11-07T17:16:25.862Z,98801.59
2022-11-07T17:18:53.228Z,98792.84
2022-11-07T17:21:25.639Z,98798.72
2022-11-07T17:23:55.277Z,98801.22
2022-11-07T17:26:29.934Z,98797.44
2022-11-07T17:28:59.066Z,98794.97
2022-11-07T17:31:26.052Z,98799.91
2022-11-07T17:33:53.258Z,98797.69
2022-11-07T17:36:37.195Z,98790.72
2022-11-07T17:39:13.480Z,98791.41
2022-11-07T17:41:42.330Z,98784.19
2022-11-07T17:44:10.130Z,98781.97
2022-11-07T17:46:41.359Z,98778.16
2022-11-07T17:49:10.824Z,98777.13
2022-11-07T17:51:37.777Z,98777.13
2022-11-07T17:54:05.032Z,98772.72
2022-11-07T17:56:33.930Z,98771.91
2022-11-07T17:59:13.777Z,98759.13
2022-11-07T18:01:41.119Z,98766.94
2022-11-07T18:04:11.026Z,98758.31
2022-11-07T18:06:40.910Z,98758.53
2022-11-07T18:09:14.842Z,98750.63
2022-11-07T18:11:42.409Z,98753.56
2022-11-07T18:14:11.461Z,98755.59
2022-11-07T18:16:38.264Z,98743.41
2022-11-07T18:19:06.722Z,98736.94
2022-11-07T18:21:33.728Z,98741.78
2022-11-07T18:24:00.591Z,98736.34
2022-11-07T18:26:31.100Z,98730.91
2022-11-07T18:29:04.489Z,98724.38
2022-11-07T18:31:31.553Z,98726.50
2022-11-07T18:34:04.229Z,98729.47
2022-11-07T18:36:35.125Z,98745.78
2022-11-07T18:39:30.067Z,98742.22
2022-11-07T18:41:56.826Z,98754.19
2022-11-07T18:44:23.643Z,98746.03
2022-11-07T18:46:50.863Z,98739.28
2022-11-07T18:49:19.641Z,98740.59
2022-11-07T18:51:47.054Z,98724.28
2022-11-07T18:54:14.416Z,98726.50
2022-11-07T18:56:42.845Z,98731.94
2022-11-07T18:59:10.613Z,98733.47
2022-11-07T19:01:37.792Z,98724.88
2022-11-07T19:04:05.974Z,98720.47
2022-11-07T19:06:33.591Z,98711.28
2022-11-07T19:09:00.868Z,98727.47
2022-11-07T19:11:31.735Z,98715.75
2022-11-07T19:14:02.983Z,98703.13
2022-11-07T19:16:30.162Z,98717.75
2022-11-07T19:18:59.589Z,98710.06
2022-11-07T19:21:26.681Z,98699.56
2022-11-07T19:23:53.595Z,98694.13
2022-11-07T19:26:20.547Z,98713.41
2022-11-07T19:28:47.883Z,98710.06
2022-11-07T19:31:15.608Z,98703.44
2022-11-07T19:33:43.949Z,98686.09
2022-11-07T19:36:17.765Z,98696.38
2022-11-07T19:38:45.397Z,98688.31
2022-11-07T19:41:14.235Z,98671.78
2022-11-07T19:43:42.707Z,98665.16
2022-11-07T19:46:22.498Z,98678.75
2022-11-07T19:48:51.043Z,98667.28
2022-11-07T19:51:22.398Z,98659.34
2022-11-07T19:53:59.543Z,98667.88
2022-11-07T19:56:30.916Z,98681.09
2022-11-07T19:59:00.323Z,98657.81
2022-11-07T20:01:31.725Z,98657.59
2022-11-07T20:03:59.544Z,98646.25
2022-11-07T20:06:30.614Z,98639.16
2022-11-07T20:08:57.502Z,98646.72
2022-11-07T20:11:26.626Z,98639.28
2022-11-07T20:13:58.572Z,98644.72
2022-11-07T20:16:27.486Z,98654.50
2022-11-07T20:18:54.314Z,98652.16
2022-11-07T20:21:23.557Z,98649.22
2022-11-07T20:23:53.889Z,98637.84
2022-11-07T20:26:24.731Z,98626.97
2022-11-07T20:28:52.815Z,98635.38
2022-11-07T20:31:25.845Z,98629.34
2022-11-07T20:33:53.457Z,98625.47
2022-11-07T20:36:21.023Z,98621.19
2022-11-07T20:38:47.848Z,98622.84
2022-11-07T20:41:15.196Z,98599.53
2022-11-07T20:43:43.894Z,98589.50
2022-11-07T20:46:17.595Z,98580.78
2022-11-07T20:48:45.202Z,98586.22
2022-11-07T20:51:20.162Z,98582.19
2022-11-07T20:53:50.375Z,98594.38
2022-11-07T20:56:20.569Z,98585.84
2022-11-07T20:58:48.339Z,98584.19
2022-11-07T21:01:21.030Z,98581.69
2022-11-07T21:03:49.091Z,98565.53
2022-11-07T21:06:17.179Z,98581.59
2022-11-07T21:08:48.035Z,98565.88
2022-11-07T21:11:15.899Z,98571.78
2022-11-07T21:13:46.494Z,98586.34
2022-11-07T21:16:19.959Z,98562.34
2022-11-07T21:18:47.029Z,98564.00
2022-11-07T21:21:21.214Z,98558.78
2022-11-07T21:23:50.031Z,98551.00
2022-11-07T21:26:27.632Z,98537.88
2022-11-07T21:28:55.146Z,98533.03
2022-11-07T21:31:25.103Z,98530.56
2022-11-07T21:33:52.490Z,98527.59
2022-11-07T21:36:24.312Z,98511.03
2022-11-07T21:38:53.165Z,98503.72
2022-11-07T21:41:19.961Z,98510.81
2022-11-07T21:43:47.074Z,98525.00
2022-11-07T21:46:23.570Z,98513.53
2022-11-07T21:48:51.440Z,98505.72
2022-11-07T21:51:31.178Z,98514.97
2022-11-07T21:53:59.829Z,98485.53
2022-11-07T21:56:30.042Z,98493.09
2022-11-07T21:59:00.089Z,98491.47
2022-11-07T22:01:28.473Z,98490.03
2022-11-07T22:04:12.422Z,98490.28
2022-11-07T22:06:45.816Z,98469.25
2022-11-07T22:09:19.665Z,98467.34
2022-11-07T22:11:47.909Z,98469.25
2022-11-07T22:14:20.791Z,98451.16
2022-11-07T22:16:49.788Z,98464.75
2022-11-07T22:19:18.339Z,98444.91
2022-11-07T22:21:45.156Z,98435.44
2022-11-07T22:24:11.948Z,98430.84
2022-11-07T22:26:38.828Z,98425.75
2022-11-07T22:29:05.678Z,98402.38
2022-11-07T22:31:32.792Z,98397.03
2022-11-07T22:34:00.858Z,98397.03
2022-11-07T22:36:28.930Z,98390.53
2022-11-07T22:38:58.453Z,98380.81
2022-11-07T22:41:27.366Z,98382.72
2022-11-07T22:43:54.335Z,98384.97
2022-11-07T22:46:25.287Z,98380.69
2022-11-07T22:48:53.862Z,98353.50
2022-11-07T22:51:31.415Z,98352.53
2022-11-07T22:54:02.241Z,98339.19
2022-11-07T22:56:30.324Z,98342.00
2022-11-07T22:58:57.166Z,98354.84
2022-11-07T23:01:37.044Z,98354.13
2022-11-07T23:04:05.610Z,98333.78
2022-11-07T23:06:32.479Z,98341.78
2022-11-07T23:09:00.849Z,98349.63
2022-11-07T23:11:50.553Z,98346.16
2022-11-07T23:14:20.990Z,98342.94
2022-11-07T23:16:51.582Z,98325.88
2022-11-07T23:19:23.021Z,98332.66
2022-11-07T23:21:52.743Z,98336.28
2022-11-07T23:24:19.526Z,98332.66
2022-11-07T23:26:46.719Z,98328.88
2022-11-07T23:29:21.784Z,98312.22
2022-11-07T23:31:50.030Z,98323.09
2022-11-07T23:34:18.522Z,98316.91
2022-11-07T23:36:45.439Z,98302.72
2022-11-07T23:39:18.912Z,98309.91
2022-11-07T23:41:46.509Z,98318.31
2022-11-07T23:44:15.270Z,98313.19
2022-11-07T23:47:01.171Z,98285.75
2022-11-07T23:49:47.045Z,98277.59
2022-11-07T23:52:14.866Z,98262.69
2022-11-07T23:55:00.093Z,98257.72
2022-11-07T23:57:27.105Z,98264.75
